Autoridad de Aeronautica Civil de Panamá


metar




ESTACIONES DESCRIPCION
MPTO (M) 190000Z 32004KT 9999 SCT018 SCT090 27/24 Q1008 NOSIG=  
MPBO (M)  
MPCH (M) 190000Z 00000KT 9999 FEW030 ///// Q1012  
MPSA (M) 182100Z 05004KT 9999 SCT015TCU BKN080 30/23 Q1008 RMK TCU E/S-SW=  
MPCE (M) 182100Z 01012KT 9999 TS SCT015CB SCT090 30/// Q1008 RMK CB W-NW/ TCU SE-SW=  
MPPN (M) 182100Z 01008KT(E) 9999 FEW012CB SCT015TCU BKN100 RMK CB/PCPN DSTN SW/ TCU E/S/W=  
MPSM (M) 190000Z 32003KT(E) 9999 SCT030 SCT070 27/24 Q1009  
MPJE FUERA DE SERVICIO  
MPPA (M) 182100Z 33006KT 9999 FEW018 SCT080 28/25 Q1008=  
MPMG (M) 190000Z 26004KT 9999 FEW016CB SCT080 27/25 Q1010 NOSIG RMK LTNG E-SE  
MPDA (M) 182100Z 18007KT 7000 -TSRA SCT012CB BKN080 28/25 Q1008 RWY WET RMK TS N/W=  
MPVR (M) 182100Z 29012KT 9000 VCSH SCT020TCU BKN100 RMK TCU SE-SW/PCPN S=  
MPWN FUERA DE SERVICIO  
MPOA (M) 182100Z NIL=  
MPMF (M) 182100Z NIL=  
MPEJ (M) 182100Z 26008KT 9999 SCT010TCU BKN100 27/// Q1011 RMK TCU NE/S=  


 

CLIMATICAS

MPTO

18 septiembre 2019

 

PCPN (mm)

T° MAX

T° MIN

VIENTO MAX (KT)

HORA

VIENTO PREDOM (KT)

24.5

29.9

24.1

29009KT

2100Z

W06KT

CLIMATICAS

MPMG

17-SEPTIEMBRE-2019

PCPN (mm)

T° MAX

T° MIN

VIENTO MAX (KT)

HORA

VIENTO PREDOM (KT)-

18.2

30.5

24.9

31009KT

2200Z

w

 



Contador: 2975